Time;durP1;ratioP1;P1;durP2;ratioP2;P2;SDS_P1;SDS_P2;PMS_P1;PMS_P2;Temp;Humidity;BMP_temperature;BMP_pressure;BME280_temperature;BME280_humidity;BME280_pressure;Samples;Min_cycle;Max_cycle;Signal;HPM_P1;HPM_P2
2023/06/29 00:00:08;;;;;;;4.90;2.50;;;;;;;12.93;100.00;99446.25;5109639;28;20262;-76
2023/06/29 00:02:37;;;;;;;2.90;2.40;;;;;;;12.91;100.00;99451.06;5112347;28;20201;-76
2023/06/29 00:05:04;;;;;;;2.70;2.50;;;;;;;12.92;100.00;99450.00;5112349;28;20231;-77
2023/06/29 00:07:33;;;;;;;2.93;2.30;;;;;;;12.89;100.00;99442.41;5112479;28;20617;-77
2023/06/29 00:10:00;;;;;;;3.10;2.70;;;;;;;12.86;100.00;99450.13;5112892;28;20210;-76
2023/06/29 00:12:27;;;;;;;2.90;2.67;;;;;;;12.84;100.00;99444.16;5112880;28;20187;-76
2023/06/29 00:14:54;;;;;;;3.73;2.30;;;;;;;12.86;100.00;99447.44;5110482;28;20195;-77
2023/06/29 00:17:21;;;;;;;3.20;2.60;;;;;;;12.84;100.00;99444.16;5112180;28;20283;-77
2023/06/29 00:19:48;;;;;;;2.73;2.47;;;;;;;12.83;100.00;99439.88;5091581;28;20708;-76
2023/06/29 00:22:16;;;;;;;2.70;2.47;;;;;;;12.77;100.00;99438.94;5109323;28;20678;-76
2023/06/29 00:24:43;;;;;;;3.33;2.63;;;;;;;12.78;100.00;99443.28;5112698;28;20270;-77
2023/06/29 00:27:11;;;;;;;2.63;2.43;;;;;;;12.78;100.00;99437.91;5111976;28;20192;-77
2023/06/29 00:29:42;;;;;;;3.33;2.63;;;;;;;12.77;100.00;99445.13;5108609;28;20621;-75
2023/06/29 00:32:09;;;;;;;2.60;2.40;;;;;;;12.76;100.00;99440.81;5112264;28;20673;-77
2023/06/29 00:34:37;;;;;;;3.50;2.40;;;;;;;12.77;100.00;99438.94;5101437;28;20199;-77
2023/06/29 00:37:04;;;;;;;4.20;2.43;;;;;;;12.76;100.00;99440.00;5112066;28;20217;-76
2023/06/29 00:39:33;;;;;;;2.40;2.20;;;;;;;12.76;100.00;99445.38;5108200;28;20201;-76
2023/06/29 00:42:00;;;;;;;3.23;2.30;;;;;;;12.77;100.00;99445.13;5104144;28;20184;-76
2023/06/29 00:44:26;;;;;;;3.73;2.60;;;;;;;12.79;100.00;99452.94;5111106;28;20191;-76
2023/06/29 00:46:53;;;;;;;2.27;2.07;;;;;;;12.76;100.00;99448.88;5087327;28;20219;-76
2023/06/29 00:49:20;;;;;;;2.43;2.23;;;;;;;12.77;100.00;99447.81;5077070;28;20219;-76
2023/06/29 00:51:49;;;;;;;2.63;2.27;;;;;;;12.75;100.00;99447.22;5085379;28;20189;-76
2023/06/29 00:54:17;;;;;;;3.63;2.33;;;;;;;12.75;100.00;99452.59;5092104;28;20196;-76
2023/06/29 00:56:45;;;;;;;3.53;1.80;;;;;;;12.75;100.00;99447.22;5094700;28;20568;-75
2023/06/29 00:59:13;;;;;;;3.47;2.60;;;;;;;12.80;100.00;99444.66;5094471;28;20612;-75
2023/06/29 01:01:40;;;;;;;2.60;2.40;;;;;;;12.84;100.00;99444.97;5081951;28;20619;-76
2023/06/29 01:04:08;;;;;;;2.93;2.30;;;;;;;12.85;100.00;99443.94;5115829;28;20232;-77
2023/06/29 01:06:44;;;;;;;2.63;2.20;;;;;;;12.85;100.00;99446.63;5098298;28;20218;-76
2023/06/29 01:09:11;;;;;;;2.73;2.27;;;;;;;12.85;100.00;99449.31;5098171;28;20246;-76
2023/06/29 01:11:38;;;;;;;3.10;2.17;;;;;;;12.84;100.00;99450.34;5109816;28;20191;-76
2023/06/29 01:14:06;;;;;;;3.50;2.17;;;;;;;12.86;100.00;99444.75;5093094;28;20206;-75
2023/06/29 01:16:34;;;;;;;3.03;2.63;;;;;;;12.90;100.00;99446.72;5097652;28;20627;-77
2023/06/29 01:19:03;;;;;;;2.27;2.10;;;;;;;12.84;100.00;99453.06;5094215;28;20191;-76
2023/06/29 01:21:30;;;;;;;2.17;2.00;;;;;;;12.86;100.00;99450.13;5080587;28;20566;-75
2023/06/29 01:23:58;;;;;;;2.67;2.47;;;;;;;12.82;100.00;99449.81;5112652;28;20201;-77
2023/06/29 01:26:25;;;;;;;2.77;2.50;;;;;;;12.80;100.00;99446.53;5093202;28;20251;-76
2023/06/29 01:28:54;;;;;;;2.70;2.30;;;;;;;12.82;100.00;99454.34;5097736;28;20300;-76
2023/06/29 01:31:21;;;;;;;2.80;2.60;;;;;;;12.88;100.00;99445.34;5115415;28;20674;-76
2023/06/29 01:33:47;;;;;;;2.47;2.27;;;;;;;12.89;100.00;99450.47;5080548;28;20203;-77
2023/06/29 01:36:24;;;;;;;2.43;2.23;;;;;;;12.87;100.00;99447.22;5107318;28;20223;-76
2023/06/29 01:39:20;;;;;;;2.60;2.23;;;;;;;13.00;100.00;99444.25;5113880;28;20213;-76
2023/06/29 01:41:47;;;;;;;2.30;2.10;;;;;;;12.98;100.00;99445.53;5095078;28;20294;-77
2023/06/29 01:44:17;;;;;;;5.73;2.70;;;;;;;12.92;100.00;99441.94;5106851;28;20262;-77
2023/06/29 01:46:45;;;;;;;2.77;2.40;;;;;;;12.89;100.00;99447.78;5088703;28;20207;-76
2023/06/29 01:49:12;;;;;;;4.13;2.80;;;;;;;12.85;100.00;99445.81;5094355;28;20701;-77
2023/06/29 01:51:39;;;;;;;2.60;2.07;;;;;;;12.83;100.00;99443.34;5080015;28;20196;-77
2023/06/29 01:54:05;;;;;;;2.43;2.23;;;;;;;12.82;100.00;99447.13;5114917;28;20689;-78
2023/06/29 01:56:32;;;;;;;2.57;2.37;;;;;;;12.84;100.00;99444.16;5114979;28;20192;-76
2023/06/29 01:59:01;;;;;;;2.50;2.20;;;;;;;12.83;100.00;99447.94;5096773;28;20229;-77
2023/06/29 02:01:29;;;;;;;3.97;2.43;;;;;;;12.80;100.00;99444.66;5090072;28;20295;-78
2023/06/29 02:03:56;;;;;;;2.53;2.33;;;;;;;12.91;100.00;99448.38;5114730;28;20615;-77
2023/06/29 02:06:23;;;;;;;2.97;2.73;;;;;;;12.98;100.00;99443.66;5096478;28;20239;-76
2023/06/29 02:08:50;;;;;;;3.10;2.10;;;;;;;12.94;100.00;99449.75;5114574;28;20755;-78
2023/06/29 02:11:16;;;;;;;2.27;2.10;;;;;;;12.95;100.00;99444.13;5114477;28;20247;-76
2023/06/29 02:13:43;;;;;;;2.50;2.30;;;;;;;12.92;100.00;99450.00;5110696;28;20209;-77
2023/06/29 02:16:10;;;;;;;2.97;2.27;;;;;;;12.90;100.00;99448.59;5096505;28;20202;-77
2023/06/29 02:18:36;;;;;;;4.03;2.17;;;;;;;12.87;100.00;99441.84;5095138;28;20295;-78
2023/06/29 02:21:05;;;;;;;2.60;2.40;;;;;;;12.82;100.00;99446.28;5107071;28;20567;-77
2023/06/29 02:23:32;;;;;;;2.30;2.20;;;;;;;12.74;100.00;99440.22;5108910;28;20188;-78
2023/06/29 02:25:59;;;;;;;3.50;2.70;;;;;;;12.74;100.00;99450.97;5114591;28;20668;-77
2023/06/29 02:28:25;;;;;;;2.70;2.50;;;;;;;12.80;100.00;99451.91;5095922;28;20683;-77
2023/06/29 02:30:52;;;;;;;5.70;2.70;;;;;;;12.77;100.00;99453.19;5096076;28;20249;-77
2023/06/29 02:33:19;;;;;;;3.43;2.40;;;;;;;12.73;100.00;99448.53;5084759;28;20192;-77
2023/06/29 02:35:46;;;;;;;3.50;2.73;;;;;;;12.74;100.00;99450.16;5088526;28;20250;-76
2023/06/29 02:38:13;;;;;;;3.17;2.40;;;;;;;12.73;100.00;99457.44;5103436;28;20316;-77
2023/06/29 02:40:40;;;;;;;3.27;2.40;;;;;;;12.73;100.00;99456.59;5106521;28;20195;-76
2023/06/29 02:43:07;;;;;;;2.60;2.40;;;;;;;12.69;100.00;99458.94;5082486;28;20289;-77
2023/06/29 02:45:34;;;;;;;2.83;2.40;;;;;;;12.69;100.00;99455.44;5102573;28;20665;-77
2023/06/29 02:48:00;;;;;;;3.03;2.40;;;;;;;12.68;100.00;99459.19;5087337;28;20212;-77
2023/06/29 02:50:30;;;;;;;4.00;2.50;;;;;;;12.67;100.00;99457.53;5086263;28;20287;-77
2023/06/29 02:52:57;;;;;;;2.67;2.47;;;;;;;12.67;100.00;99455.69;5083818;28;20192;-76
2023/06/29 02:55:23;;;;;;;3.73;2.57;;;;;;;12.64;100.00;99450.78;5078308;28;20684;-78
2023/06/29 02:57:51;;;;;;;2.23;2.13;;;;;;;12.66;100.00;99458.59;5107406;28;20278;-77
2023/06/29 03:00:18;;;;;;;4.30;2.30;;;;;;;12.67;100.00;99458.38;5104647;28;20654;-77
2023/06/29 03:02:45;;;;;;;5.20;2.63;;;;;;;12.67;100.00;99454.84;5105795;28;20379;-77
2023/06/29 03:05:11;;;;;;;2.83;2.43;;;;;;;12.68;100.00;99456.50;5102474;28;20262;-77
2023/06/29 03:07:38;;;;;;;2.80;2.60;;;;;;;12.70;100.00;99460.56;5104914;28;20546;-77
2023/06/29 03:10:06;;;;;;;3.00;2.27;;;;;;;12.73;100.00;99461.97;5087647;28;20203;-77
2023/06/29 03:12:33;;;;;;;2.57;2.37;;;;;;;12.78;100.00;99464.78;5109524;28;20239;-77
2023/06/29 03:15:00;;;;;;;2.77;2.47;;;;;;;12.83;100.00;99469.44;5107685;28;20209;-77
2023/06/29 03:17:27;;;;;;;4.03;2.50;;;;;;;12.88;100.00;99462.28;5113082;28;20214;-76
2023/06/29 03:19:54;;;;;;;2.63;2.23;;;;;;;12.91;100.00;99456.44;5110054;28;20198;-76
2023/06/29 03:22:21;;;;;;;2.70;2.50;;;;;;;12.94;100.00;99461.31;5113045;28;20662;-76
2023/06/29 03:24:47;;;;;;;2.60;2.40;;;;;;;12.96;100.00;99463.78;5111953;28;20657;-76
2023/06/29 03:27:14;;;;;;;3.43;2.60;;;;;;;12.99;100.00;99457.91;5112751;28;20274;-77
2023/06/29 03:29:41;;;;;;;3.10;2.40;;;;;;;13.02;100.00;99463.63;5107199;28;20290;-76
2023/06/29 03:32:08;;;;;;;2.93;2.30;;;;;;;12.99;100.00;99464.13;5110114;28;20227;-77
2023/06/29 03:34:34;;;;;;;4.97;2.60;;;;;;;13.01;100.00;99462.03;5105304;28;20274;-77
2023/06/29 03:37:01;;;;;;;2.53;2.33;;;;;;;13.05;100.00;99460.47;5107878;28;20206;-76
2023/06/29 03:39:27;;;;;;;2.83;2.37;;;;;;;13.07;100.00;99470.97;5105400;28;20287;-76
2023/06/29 03:41:54;;;;;;;2.70;2.50;;;;;;;13.06;100.00;99469.38;5108320;28;20223;-77
2023/06/29 03:44:21;;;;;;;3.30;2.33;;;;;;;13.07;100.00;99461.03;5110033;28;20256;-76
2023/06/29 03:46:47;;;;;;;3.13;2.60;;;;;;;13.16;100.00;99466.88;5110197;28;20279;-77
2023/06/29 03:49:14;;;;;;;4.53;2.73;;;;;;;13.15;100.00;99457.19;5110709;28;20298;-77
2023/06/29 03:51:41;;;;;;;2.37;2.17;;;;;;;13.19;100.00;99463.72;5111768;28;20227;-77
2023/06/29 03:54:07;;;;;;;3.70;2.60;;;;;;;13.27;100.00;99465.19;5112732;28;20220;-76
2023/06/29 03:56:34;;;;;;;2.60;2.33;;;;;;;13.29;100.00;99473.88;5112727;28;20241;-76
2023/06/29 03:59:01;;;;;;;3.23;2.50;;;;;;;13.35;100.00;99465.63;5112578;28;20214;-77
2023/06/29 04:01:27;;;;;;;3.57;2.50;;;;;;;13.46;100.00;99467.47;5112556;28;20215;-78
2023/06/29 04:03:54;;;;;;;4.60;2.53;;;;;;;13.53;100.00;99470.00;5112355;28;20651;-77
2023/06/29 04:06:20;;;;;;;2.60;2.40;;;;;;;13.63;100.00;99473.66;5111055;28;20612;-76
2023/06/29 04:08:47;;;;;;;2.80;2.53;;;;;;;13.85;100.00;99478.34;5112346;28;20294;-77
2023/06/29 04:11:14;;;;;;;3.77;2.50;;;;;;;14.79;100.00;99477.31;5112799;28;20188;-78
2023/06/29 04:13:41;;;;;;;2.80;2.20;;;;;;;17.64;100.00;99483.78;5112527;28;20585;-76
2023/06/29 04:16:07;;;;;;;2.83;2.20;;;;;;;20.16;100.00;99476.59;5112317;28;20569;-76
2023/06/29 04:18:35;;;;;;;4.23;2.07;;;;;;;22.10;100.00;99473.91;5111627;28;20212;-78
2023/06/29 04:21:01;;;;;;;2.00;1.80;;;;;;;23.42;100.00;99470.22;5108654;28;20202;-76
2023/06/29 04:23:28;;;;;;;2.20;1.97;;;;;;;24.78;89.80;99471.44;5112761;28;20189;-77
2023/06/29 04:25:55;;;;;;;2.33;2.00;;;;;;;25.55;81.70;99478.31;5102506;28;20192;-77
2023/06/29 04:28:21;;;;;;;2.20;2.00;;;;;;;26.16;77.20;99483.44;5109127;28;20240;-76
2023/06/29 04:30:48;;;;;;;2.57;1.90;;;;;;;26.65;73.04;99478.47;5109050;28;20276;-77
2023/06/29 04:33:15;;;;;;;2.83;1.97;;;;;;;27.10;69.54;99479.59;5098363;28;20201;-77
2023/06/29 04:35:43;;;;;;;2.20;1.63;;;;;;;27.31;67.48;99468.59;5103677;28;20195;-77
2023/06/29 04:38:11;;;;;;;2.03;1.83;;;;;;;27.45;66.08;99466.41;5099385;28;20646;-77
2023/06/29 04:40:38;;;;;;;1.77;1.67;;;;;;;27.14;65.61;99475.03;5090133;28;20224;-77
2023/06/29 04:43:06;;;;;;;3.90;2.00;;;;;;;25.54;68.44;99466.53;5108014;28;20237;-76
2023/06/29 04:45:33;;;;;;;2.20;2.00;;;;;;;23.74;73.97;99465.69;5106215;28;20201;-77
2023/06/29 04:48:00;;;;;;;2.73;2.20;;;;;;;22.42;80.05;99465.69;5105794;28;20223;-77
2023/06/29 04:50:31;;;;;;;2.30;2.10;;;;;;;21.50;86.49;99462.81;5108154;28;20734;-77
2023/06/29 04:52:58;;;;;;;2.30;2.10;;;;;;;20.78;93.87;99453.94;5108082;28;20284;-78
2023/06/29 04:55:25;;;;;;;2.77;2.20;;;;;;;20.28;100.00;99454.47;5108402;28;20189;-78
2023/06/29 04:57:52;;;;;;;5.23;2.13;;;;;;;19.92;100.00;99454.81;5095651;28;20223;-77
2023/06/29 05:00:19;;;;;;;3.13;2.30;;;;;;;19.70;100.00;99455.22;5111125;28;20283;-77
2023/06/29 05:02:46;;;;;;;2.67;2.20;;;;;;;19.56;100.00;99459.69;5107037;28;20560;-77
2023/06/29 05:05:12;;;;;;;4.87;2.33;;;;;;;19.46;100.00;99458.91;5113779;28;20738;-76
2023/06/29 05:07:41;;;;;;;4.43;2.33;;;;;;;19.48;100.00;99456.75;5114062;28;20196;-77
2023/06/29 05:10:08;;;;;;;3.83;1.90;;;;;;;19.46;100.00;99459.75;5115665;28;20257;-76
2023/06/29 05:12:35;;;;;;;2.43;2.17;;;;;;;19.42;100.00;99463.28;5115805;28;20211;-77
2023/06/29 05:15:01;;;;;;;4.13;2.37;;;;;;;19.52;100.00;99460.53;5113852;28;20186;-77
2023/06/29 05:17:28;;;;;;;3.10;2.13;;;;;;;19.60;100.00;99454.47;5115334;28;20196;-77
2023/06/29 05:19:55;;;;;;;3.40;2.20;;;;;;;19.71;100.00;99459.56;5109996;28;20677;-78
2023/06/29 05:22:22;;;;;;;1.93;1.83;;;;;;;19.85;100.00;99462.47;5103823;28;20199;-77
2023/06/29 05:24:48;;;;;;;2.80;2.30;;;;;;;19.99;100.00;99463.44;5109308;28;20230;-77
2023/06/29 05:27:15;;;;;;;3.50;2.50;;;;;;;20.11;100.00;99468.50;5111039;28;20281;-77
2023/06/29 05:29:41;;;;;;;3.10;2.20;;;;;;;20.26;100.00;99462.91;5100098;28;20208;-78
2023/06/29 05:32:08;;;;;;;3.27;2.17;;;;;;;20.39;100.00;99467.69;5094995;28;20732;-77
2023/06/29 05:34:38;;;;;;;3.40;2.20;;;;;;;20.46;100.00;99459.19;5111104;28;20184;-78
2023/06/29 05:37:04;;;;;;;3.00;2.13;;;;;;;20.60;100.00;99460.13;5097413;28;20222;-77
2023/06/29 05:39:31;;;;;;;3.40;2.10;;;;;;;20.67;100.00;99460.59;5110926;28;20228;-77
2023/06/29 05:41:57;;;;;;;3.70;2.20;;;;;;;20.67;100.00;99458.69;5115067;28;20275;-77
2023/06/29 05:44:24;;;;;;;4.73;2.20;;;;;;;20.84;100.00;99463.69;5111196;28;20251;-78
2023/06/29 05:46:51;;;;;;;2.57;2.10;;;;;;;21.03;100.00;99464.53;5114675;28;20196;-78
2023/06/29 05:49:17;;;;;;;3.40;2.30;;;;;;;21.21;100.00;99464.88;5114318;28;20211;-78
2023/06/29 05:51:44;;;;;;;2.53;2.30;;;;;;;21.37;100.00;99463.56;5115036;28;20215;-78
2023/06/29 05:54:11;;;;;;;2.78;1.88;;;;;;;21.44;100.00;99464.00;5114957;28;20192;-77
2023/06/29 05:56:37;;;;;;;1.95;1.70;;;;;;;21.46;100.00;99469.97;5114734;28;20212;-77
2023/06/29 05:59:04;;;;;;;1.98;1.77;;;;;;;21.63;100.00;99467.53;5113418;28;20191;-78
2023/06/29 06:01:31;;;;;;;3.30;2.10;;;;;;;21.59;100.00;99466.50;5114402;28;20191;-78
2023/06/29 06:03:58;;;;;;;2.50;1.70;;;;;;;21.74;100.00;99458.06;5114232;28;20292;-77
2023/06/29 06:06:25;;;;;;;4.72;1.75;;;;;;;21.86;99.62;99460.34;5107330;28;20215;-78
2023/06/29 06:08:51;;;;;;;3.95;1.75;;;;;;;21.70;96.48;99459.78;5114381;28;20203;-78
2023/06/29 06:11:18;;;;;;;3.05;1.73;;;;;;;21.62;95.66;99459.63;5114340;28;20665;-78
2023/06/29 06:13:45;;;;;;;3.25;1.77;;;;;;;21.77;95.19;99459.41;5107922;28;20702;-77
2023/06/29 06:16:12;;;;;;;3.72;1.98;;;;;;;21.60;100.00;99459.13;5114712;28;20192;-77
2023/06/29 06:18:38;;;;;;;2.58;1.80;;;;;;;21.52;100.00;99453.22;5087651;28;20221;-78
2023/06/29 06:21:05;;;;;;;2.35;1.83;;;;;;;21.57;100.00;99459.72;5108800;28;20262;-77
2023/06/29 06:23:32;;;;;;;2.92;1.90;;;;;;;21.50;100.00;99460.09;5098313;28;20199;-77
2023/06/29 06:26:00;;;;;;;2.47;1.60;;;;;;;21.77;97.49;99464.88;5108665;28;20192;-78
2023/06/29 06:28:27;;;;;;;2.22;1.80;;;;;;;22.03;99.27;99451.63;5110837;28;20196;-78
2023/06/29 06:30:54;;;;;;;2.85;1.65;;;;;;;21.94;95.58;99459.69;5114122;28;20219;-78
2023/06/29 06:33:21;;;;;;;2.92;1.75;;;;;;;22.16;95.54;99448.94;5108723;28;20188;-77
2023/06/29 06:35:47;;;;;;;4.30;1.70;;;;;;;22.34;93.79;99455.47;5108018;28;20200;-77
2023/06/29 06:38:14;;;;;;;2.17;1.63;;;;;;;22.49;92.68;99451.66;5104277;28;20205;-77
2023/06/29 06:40:41;;;;;;;3.15;1.60;;;;;;;22.59;90.33;99456.88;5098877;28;20227;-77
2023/06/29 06:43:08;;;;;;;2.28;1.58;;;;;;;22.29;87.34;99461.81;5099909;28;20203;-77
2023/06/29 06:45:36;;;;;;;3.35;1.70;;;;;;;22.19;88.10;99458.47;5080726;28;20289;-76
2023/06/29 06:48:03;;;;;;;2.05;1.52;;;;;;;22.50;85.56;99455.97;5099987;28;20274;-78
2023/06/29 06:50:29;;;;;;;2.20;1.65;;;;;;;22.56;83.23;99461.03;5096868;28;20208;-78
2023/06/29 06:52:56;;;;;;;3.42;1.73;;;;;;;22.57;85.94;99457.22;5108986;28;20666;-76
2023/06/29 06:55:23;;;;;;;4.05;1.77;;;;;;;22.67;86.39;99454.28;5101209;28;20196;-77
2023/06/29 06:57:49;;;;;;;2.38;1.77;;;;;;;22.78;85.16;99452.97;5106986;28;20237;-77
2023/06/29 07:00:16;;;;;;;2.40;1.58;;;;;;;22.93;84.19;99449.13;5103605;28;20231;-76
2023/06/29 07:02:43;;;;;;;3.60;1.67;;;;;;;23.07;83.51;99449.94;5104013;28;20203;-76
2023/06/29 07:05:10;;;;;;;2.40;1.60;;;;;;;23.18;82.78;99445.06;5103680;28;20237;-76
2023/06/29 07:07:37;;;;;;;3.17;1.55;;;;;;;23.01;79.29;99451.16;5106667;28;20279;-80
2023/06/29 07:10:04;;;;;;;2.28;1.50;;;;;;;23.05;80.08;99445.91;5109520;28;20199;-77
2023/06/29 07:12:31;;;;;;;2.08;1.65;;;;;;;23.03;80.10;99437.19;5112811;28;20271;-77
2023/06/29 07:14:57;;;;;;;3.33;1.60;;;;;;;23.15;79.79;99448.38;5104556;28;20193;-77
2023/06/29 07:17:24;;;;;;;4.38;1.88;;;;;;;23.09;78.66;99452.38;5107802;28;20259;-77
2023/06/29 07:19:51;;;;;;;4.35;1.75;;;;;;;22.77;79.95;99439.63;5089075;28;20581;-77
2023/06/29 07:22:20;;;;;;;2.80;1.63;;;;;;;22.93;79.33;99448.31;5101161;28;20274;-76
2023/06/29 07:24:50;;;;;;;3.22;1.63;;;;;;;23.12;79.44;99444.38;5104055;28;20223;-77
2023/06/29 07:27:17;;;;;;;3.50;1.58;;;;;;;22.90;79.55;99438.84;5106018;28;20185;-76
2023/06/29 07:29:46;;;;;;;2.67;1.63;;;;;;;23.13;78.66;99440.53;5102930;28;20250;-76
2023/06/29 07:32:12;;;;;;;2.90;1.50;;;;;;;23.09;79.28;99441.44;5101200;28;20219;-76
2023/06/29 07:34:39;;;;;;;1.77;1.23;;;;;;;22.94;78.27;99445.31;5098540;28;20968;-77
2023/06/29 07:37:06;;;;;;;4.35;1.73;;;;;;;23.25;77.48;99448.16;5112211;28;20192;-77
2023/06/29 07:39:33;;;;;;;4.03;1.42;;;;;;;23.30;76.78;99449.97;5112650;28;20221;-76
2023/06/29 07:42:00;;;;;;;3.28;1.52;;;;;;;23.50;75.89;99452.28;5112630;28;20211;-76
2023/06/29 07:44:27;;;;;;;3.95;1.70;;;;;;;23.46;75.62;99445.84;5112194;28;20207;-76
2023/06/29 07:46:54;;;;;;;3.10;1.63;;;;;;;23.47;74.73;99453.72;5112518;28;20315;-76
2023/06/29 07:49:21;;;;;;;2.83;1.45;;;;;;;23.55;74.91;99455.72;5112377;28;20216;-77
2023/06/29 07:51:48;;;;;;;2.75;1.55;;;;;;;23.19;75.45;99450.19;5087542;28;20558;-76
2023/06/29 07:54:16;;;;;;;2.72;1.58;;;;;;;23.59;73.24;99451.25;5112503;28;20195;-77
2023/06/29 07:56:43;;;;;;;3.05;1.48;;;;;;;23.79;72.32;99440.94;5112285;28;20201;-76
2023/06/29 07:59:12;;;;;;;4.25;1.63;;;;;;;23.78;72.62;99439.31;5112179;28;20733;-76
2023/06/29 08:01:39;;;;;;;2.88;1.50;;;;;;;23.65;69.96;99435.53;5112232;28;20708;-76
2023/06/29 08:04:07;;;;;;;3.25;1.50;;;;;;;23.93;69.59;99431.56;5111727;28;20229;-77
2023/06/29 08:06:34;;;;;;;2.95;1.70;;;;;;;23.38;71.32;99421.91;5112349;28;20751;-76
2023/06/29 08:09:03;;;;;;;2.00;1.35;;;;;;;23.80;71.37;99442.53;5112062;28;20648;-76
2023/06/29 08:11:30;;;;;;;1.90;1.33;;;;;;;23.78;68.83;99431.94;5102689;28;20198;-77
2023/06/29 08:13:57;;;;;;;2.88;1.27;;;;;;;23.95;67.04;99433.97;5091936;28;20626;-78
2023/06/29 08:16:24;;;;;;;2.95;1.48;;;;;;;23.81;68.76;99427.75;5104764;28;20198;-76
2023/06/29 08:18:50;;;;;;;3.17;1.60;;;;;;;23.88;68.93;99431.69;5092708;28;20191;-77
2023/06/29 08:21:17;;;;;;;1.98;1.25;;;;;;;23.82;68.80;99429.38;5106193;28;20212;-78
2023/06/29 08:23:46;;;;;;;3.50;1.70;;;;;;;23.94;68.98;99435.06;5105335;28;20200;-76
2023/06/29 08:26:13;;;;;;;2.65;1.60;;;;;;;24.01;67.04;99427.25;5079866;28;20257;-76
2023/06/29 08:28:40;;;;;;;1.98;1.50;;;;;;;24.07;66.54;99424.09;5103910;28;20255;-76
2023/06/29 08:31:06;;;;;;;2.95;1.40;;;;;;;24.01;65.24;99428.06;5103141;28;20213;-76
2023/06/29 08:33:33;;;;;;;3.70;1.80;;;;;;;24.12;66.81;99418.44;5103948;28;20210;-76
2023/06/29 08:36:00;;;;;;;3.53;1.60;;;;;;;24.22;68.40;99428.34;5100555;28;20190;-78
2023/06/29 08:38:27;;;;;;;2.63;1.40;;;;;;;24.41;68.68;99425.38;5105956;28;20198;-77
2023/06/29 08:40:56;;;;;;;3.92;1.77;;;;;;;24.60;68.78;99419.66;5105825;28;20255;-76
2023/06/29 08:43:23;;;;;;;1.88;1.38;;;;;;;24.53;67.05;99415.47;5093804;28;20312;-76
2023/06/29 08:45:50;;;;;;;3.10;1.73;;;;;;;24.63;67.41;99406.16;5111659;28;20803;-76
2023/06/29 08:48:18;;;;;;;2.58;1.48;;;;;;;24.90;69.05;99416.91;5105860;28;20290;-76
2023/06/29 08:50:51;;;;;;;2.45;1.60;;;;;;;25.12;65.90;99417.91;5110812;28;20284;-77
2023/06/29 08:53:19;;;;;;;2.78;1.50;;;;;;;25.11;64.41;99414.34;5081140;28;20646;-76
2023/06/29 08:55:47;;;;;;;2.38;1.73;;;;;;;24.84;64.70;99412.66;5092834;28;20187;-77
2023/06/29 08:58:14;;;;;;;2.10;1.60;;;;;;;24.91;64.14;99413.03;5092410;28;20244;-75
2023/06/29 09:00:42;;;;;;;3.30;1.60;;;;;;;24.76;64.83;99412.63;5111196;28;20199;-76
2023/06/29 09:03:10;;;;;;;2.35;1.50;;;;;;;24.77;63.83;99415.06;5093433;28;20679;-77
2023/06/29 09:05:37;;;;;;;2.72;1.45;;;;;;;24.95;62.88;99418.69;5108991;28;20305;-77
2023/06/29 09:08:04;;;;;;;2.75;1.88;;;;;;;25.03;64.13;99406.13;5100545;28;20282;-76
2023/06/29 09:10:32;;;;;;;3.70;1.58;;;;;;;25.21;63.76;99411.28;5109554;28;20652;-77
2023/06/29 09:12:59;;;;;;;4.55;1.80;;;;;;;25.20;63.40;99409.69;5104425;28;20629;-75
2023/06/29 09:15:27;;;;;;;3.65;1.50;;;;;;;25.30;63.05;99409.38;5095863;28;20229;-76
2023/06/29 09:17:54;;;;;;;2.38;1.33;;;;;;;25.41;62.87;99407.94;5111191;28;20661;-77
2023/06/29 09:20:21;;;;;;;2.33;1.70;;;;;;;25.50;63.27;99410.66;5110897;28;20196;-76
2023/06/29 09:22:52;;;;;;;4.00;1.75;;;;;;;25.32;63.23;99395.34;5112393;28;20202;-76
2023/06/29 09:25:19;;;;;;;1.52;1.20;;;;;;;25.50;58.71;99393.41;5115114;28;20195;-78
2023/06/29 09:28:04;;;;;;;1.50;1.40;;;;;;;25.73;57.80;99389.38;5099254;28;20207;-76
2023/06/29 09:30:37;;;;;;;2.63;1.30;;;;;;;25.79;56.72;99390.81;5114812;28;20209;-77
2023/06/29 09:33:15;;;;;;;2.60;1.55;;;;;;;25.76;57.80;99386.78;5114735;28;20219;-76
2023/06/29 09:35:51;;;;;;;2.22;1.50;;;;;;;25.84;58.22;99396.97;5110029;28;20665;-76
2023/06/29 09:38:18;;;;;;;2.58;1.50;;;;;;;25.84;57.25;99394.22;5096445;28;20623;-76
2023/06/29 09:40:53;;;;;;;2.03;1.40;;;;;;;25.82;58.00;99395.66;5114800;28;20196;-77
2023/06/29 09:43:30;;;;;;;1.95;1.50;;;;;;;25.91;55.87;99384.66;5115044;28;20252;-76
2023/06/29 09:46:05;;;;;;;4.30;1.60;;;;;;;25.34;56.95;99382.91;5112068;28;20191;-77
2023/06/29 09:48:32;;;;;;;1.52;1.30;;;;;;;25.56;56.33;99387.47;5079415;28;20616;-76
2023/06/29 09:51:01;;;;;;;3.63;1.33;;;;;;;25.28;57.45;99384.22;5114361;28;20247;-76
2023/06/29 09:53:32;;;;;;;2.00;1.42;;;;;;;25.31;56.45;99380.03;5114690;28;20222;-77
2023/06/29 09:56:00;;;;;;;2.63;1.40;;;;;;;25.48;57.39;99390.97;5114414;28;20196;-76
2023/06/29 09:58:29;;;;;;;2.72;1.45;;;;;;;25.79;56.52;99374.38;5114597;28;20196;-76
2023/06/29 10:00:58;;;;;;;2.47;1.63;;;;;;;25.55;56.42;99361.16;5114477;28;20191;-78
2023/06/29 10:03:31;;;;;;;2.17;1.52;;;;;;;25.91;57.83;99382.72;5104765;28;20227;-77
2023/06/29 10:06:02;;;;;;;2.47;1.40;;;;;;;26.12;55.54;99377.34;5107332;28;20637;-76
2023/06/29 10:08:30;;;;;;;2.47;1.40;;;;;;;26.14;55.40;99372.31;5099095;28;20872;-76
2023/06/29 10:11:00;;;;;;;1.60;1.50;;;;;;;26.21;56.62;99370.72;5075795;28;20312;-77
2023/06/29 10:13:31;;;;;;;2.03;1.45;;;;;;;26.26;56.46;99370.53;5102597;28;20197;-77
2023/06/29 10:15:59;;;;;;;1.60;1.40;;;;;;;26.50;56.37;99355.41;5083037;28;20271;-77
2023/06/29 10:18:32;;;;;;;2.67;1.58;;;;;;;26.53;57.38;99362.97;5084198;28;20189;-76
2023/06/29 10:21:00;;;;;;;2.33;1.30;;;;;;;26.65;55.56;99363.06;5081943;28;20690;-76
2023/06/29 10:23:27;;;;;;;1.60;1.27;;;;;;;26.73;54.45;99351.22;5083980;28;20220;-77
2023/06/29 10:25:54;;;;;;;2.45;1.52;;;;;;;26.88;54.42;99352.59;5090119;28;20195;-80
2023/06/29 10:28:21;;;;;;;1.90;1.42;;;;;;;26.98;54.31;99350.28;5105705;28;20227;-76
2023/06/29 10:30:52;;;;;;;2.15;1.48;;;;;;;27.00;53.31;99338.94;5109835;28;20552;-77
2023/06/29 10:33:22;;;;;;;2.83;1.60;;;;;;;26.63;54.31;99338.69;5095411;28;20606;-76
2023/06/29 10:36:01;;;;;;;2.38;1.77;;;;;;;26.71;55.42;99337.00;5111626;28;20685;-77
2023/06/29 10:38:32;;;;;;;1.80;1.60;;;;;;;26.50;54.21;99334.22;5096081;28;20236;-76
2023/06/29 10:40:59;;;;;;;1.95;1.50;;;;;;;26.41;55.47;99338.16;5107776;28;20188;-76
2023/06/29 10:43:27;;;;;;;2.70;1.42;;;;;;;26.47;55.02;99340.38;5113690;28;20245;-76
2023/06/29 10:45:54;;;;;;;2.92;1.35;;;;;;;26.62;53.68;99334.31;5113706;28;20183;-76
2023/06/29 10:48:20;;;;;;;2.88;1.30;;;;;;;26.80;51.99;99332.25;5109463;28;20246;-76
2023/06/29 10:51:08;;;;;;;2.13;1.52;;;;;;;26.86;52.08;99328.22;5111967;28;20215;-77
2023/06/29 10:53:41;;;;;;;1.45;1.30;;;;;;;27.03;50.24;99328.06;5113214;28;20560;-77
2023/06/29 10:56:28;;;;;;;2.85;1.45;;;;;;;27.23;51.58;99318.22;5113459;28;20676;-77
2023/06/29 10:58:55;;;;;;;1.83;1.25;;;;;;;27.01;50.81;99324.88;5105349;28;20200;-77
2023/06/29 11:01:21;;;;;;;2.13;1.60;;;;;;;27.02;50.11;99322.91;5112903;28;20236;-76
2023/06/29 11:03:49;;;;;;;1.92;1.40;;;;;;;27.08;49.68;99308.63;5093395;28;20231;-76
2023/06/29 11:06:15;;;;;;;3.90;1.55;;;;;;;27.46;50.38;99307.66;5107452;28;20693;-77
2023/06/29 11:09:12;;;;;;;1.40;1.30;;;;;;;27.41;52.14;99305.09;5110330;28;20211;-77
2023/06/29 11:11:39;;;;;;;1.77;1.40;;;;;;;27.53;51.29;99299.66;5112939;28;20234;-78
2023/06/29 11:14:06;;;;;;;1.65;1.52;;;;;;;27.80;49.19;99295.50;5108285;28;20476;-78
2023/06/29 11:16:34;;;;;;;1.60;1.50;;;;;;;26.56;52.22;99291.69;5094981;28;20308;-76
2023/06/29 11:19:02;;;;;;;2.72;1.58;;;;;;;27.27;50.90;99291.66;5110161;28;20534;-77
2023/06/29 11:21:29;;;;;;;3.53;1.70;;;;;;;26.81;52.33;99292.66;5112852;28;20200;-77
2023/06/29 11:23:55;;;;;;;2.65;1.55;;;;;;;26.86;51.00;99281.50;5112723;28;20294;-77
2023/06/29 11:26:22;;;;;;;2.10;1.40;;;;;;;27.32;50.73;99280.44;5112407;28;20554;-76
2023/06/29 11:28:50;;;;;;;2.83;1.50;;;;;;;26.70;51.63;99283.19;5093121;28;20279;-77
2023/06/29 11:31:17;;;;;;;2.35;1.50;;;;;;;27.50;51.85;99284.66;5111344;28;20211;-77